Time;durP1;ratioP1;P1;durP2;ratioP2;P2;SDS_P1;SDS_P2;PMS_P1;PMS_P2;Temp;Humidity;BMP_temperature;BMP_pressure;BME280_temperature;BME280_humidity;BME280_pressure;Samples;Min_cycle;Max_cycle;Signal;HPM_P1;HPM_P2
2021/11/08 00:00:19;;;;;;;;;;;;;;;7.74;68.83;98066.98;1722107;83;22059;-83
2021/11/08 00:02:46;;;;;;;;;;;;;;;7.75;68.92;98064.72;1721757;82;21247;-85
2021/11/08 00:05:12;;;;;;;;;;;;;;;7.75;68.99;98067.79;1716136;83;24585;-84
2021/11/08 00:07:40;;;;;;;;;;;;;;;7.75;69.05;98068.62;1720529;83;20240;-84
2021/11/08 00:10:07;;;;;;;;;;;;;;;7.75;69.14;98074.30;1723323;83;24840;-84
2021/11/08 00:12:33;;;;;;;;;;;;;;;7.72;69.20;98070.61;1723375;83;22059;-84
2021/11/08 00:15:01;;;;;;;;;;;;;;;7.70;69.27;98069.39;1723276;83;26043;-84
2021/11/08 00:17:44;;;;;;;;;;;;;;;7.70;69.34;98073.77;1733074;81;24498;-84
2021/11/08 00:20:02;;;;;;;;;;;;;;;7.69;69.41;98079.93;1732757;81;20282;-84
2021/11/08 00:22:26;;;;;;;;;;;;;;;7.70;69.47;98091.99;1711219;83;24962;-84
2021/11/08 00:24:52;;;;;;;;;;;;;;;7.68;69.54;98086.06;1716740;83;21987;-84
2021/11/08 00:27:19;;;;;;;;;;;;;;;7.69;69.63;98089.05;1717992;83;25985;-84
2021/11/08 00:29:45;;;;;;;;;;;;;;;7.69;69.67;98089.85;1735835;82;24404;-84
2021/11/08 00:32:11;;;;;;;;;;;;;;;7.71;69.76;98085.39;1723526;82;20217;-84
2021/11/08 00:34:38;;;;;;;;;;;;;;;7.70;69.81;98088.92;1722735;83;24748;-84
2021/11/08 00:37:04;;;;;;;;;;;;;;;7.70;69.88;98098.50;1717167;83;22166;-84
2021/11/08 00:39:30;;;;;;;;;;;;;;;7.69;69.93;98104.17;1722357;81;25978;-84
2021/11/08 00:41:56;;;;;;;;;;;;;;;7.68;69.98;98102.99;1722135;82;24481;-84
2021/11/08 00:44:23;;;;;;;;;;;;;;;7.68;70.05;98099.92;1722120;83;20259;-84
2021/11/08 00:46:50;;;;;;;;;;;;;;;7.68;70.10;98099.09;1722936;83;25001;-84
2021/11/08 00:49:17;;;;;;;;;;;;;;;7.72;70.15;98097.95;1723056;83;21922;-83
2021/11/08 00:51:45;;;;;;;;;;;;;;;7.73;70.22;98103.08;1723302;83;26181;-83
2021/11/08 00:54:12;;;;;;;;;;;;;;;7.74;70.28;98113.87;1723246;83;25314;-83
2021/11/08 00:56:41;;;;;;;;;;;;;;;7.76;70.32;98117.19;1722992;83;20544;-83
2021/11/08 00:59:07;;;;;;;;;;;;;;;7.77;70.37;98118.03;1720075;83;24786;-84
2021/11/08 01:01:33;;;;;;;;;;;;;;;7.77;70.42;98118.03;1717633;83;22024;-84
2021/11/08 01:03:59;;;;;;;;;;;;;;;7.77;70.46;98122.77;1716674;82;26788;-83
2021/11/08 01:06:26;;;;;;;;;;;;;;;7.76;70.50;98122.40;1717011;83;24629;-83
2021/11/08 01:08:52;;;;;;;;;;;;;;;7.76;70.52;98119.80;1713700;82;20219;-84
2021/11/08 01:11:18;;;;;;;;;;;;;;;7.77;70.54;98120.17;1723135;82;24796;-84
2021/11/08 01:13:45;;;;;;;;;;;;;;;7.76;70.57;98121.09;1717668;82;22159;-84
2021/11/08 01:16:11;;;;;;;;;;;;;;;7.79;70.61;98125.30;1717367;83;26051;-84
2021/11/08 01:18:37;;;;;;;;;;;;;;;7.79;70.65;98124.83;1731768;81;25289;-84
2021/11/08 01:21:06;;;;;;;;;;;;;;;7.78;70.69;98123.61;1732467;81;20268;-84
2021/11/08 01:23:35;;;;;;;;;;;;;;;7.81;70.71;98120.80;1735487;81;25534;-84
2021/11/08 01:26:06;;;;;;;;;;;;;;;7.81;70.75;98125.55;1716231;83;22138;-84
2021/11/08 01:28:34;;;;;;;;;;;;;;;7.81;70.80;98129.45;1715174;83;26836;-84
2021/11/08 01:30:59;;;;;;;;;;;;;;;7.83;70.81;98136.72;1717169;83;25305;-84
2021/11/08 01:33:25;;;;;;;;;;;;;;;7.83;70.86;98133.27;1715663;82;20296;-84
2021/11/08 01:36:09;;;;;;;;;;;;;;;7.84;70.87;98134.48;1716584;83;24751;-82
2021/11/08 01:38:26;;;;;;;;;;;;;;;7.83;70.90;98138.02;1731717;81;22008;-83
2021/11/08 01:40:53;;;;;;;;;;;;;;;7.82;70.91;98147.23;1730954;81;25986;-83
2021/11/08 01:43:20;;;;;;;;;;;;;;;7.83;70.92;98152.81;1674734;83;24388;-83
2021/11/08 01:45:46;;;;;;;;;;;;;;;7.80;70.93;98152.52;1723169;82;20253;-83
2021/11/08 01:48:12;;;;;;;;;;;;;;;7.80;70.95;98161.64;1724372;83;24712;-83
2021/11/08 01:50:40;;;;;;;;;;;;;;;7.79;70.97;98159.16;1724040;82;22820;-84
2021/11/08 01:53:06;;;;;;;;;;;;;;;7.80;70.99;98155.63;1735397;82;25995;-83
2021/11/08 01:55:33;;;;;;;;;;;;;;;7.78;70.99;98157.02;1735520;82;24460;-83
2021/11/08 01:57:59;;;;;;;;;;;;;;;7.79;71.01;98157.85;1735768;81;20211;-83
2021/11/08 02:00:27;;;;;;;;;;;;;;;7.79;71.02;98163.06;1734720;81;24742;-83
2021/11/08 02:02:53;;;;;;;;;;;;;;;7.77;71.04;98165.75;1736129;81;22005;-83
2021/11/08 02:05:19;;;;;;;;;;;;;;;7.77;71.05;98164.91;1734495;81;26065;-83
2021/11/08 02:07:46;;;;;;;;;;;;;;;7.77;71.05;98167.05;1721024;83;24446;-83
2021/11/08 02:10:14;;;;;;;;;;;;;;;7.77;71.10;98167.52;1723298;83;20259;-84
2021/11/08 02:12:40;;;;;;;;;;;;;;;7.74;71.10;98167.27;1723405;83;25385;-85
2021/11/08 02:15:08;;;;;;;;;;;;;;;7.76;71.10;98163.23;1723302;83;22113;-85
2021/11/08 02:17:34;;;;;;;;;;;;;;;7.76;71.13;98169.75;1721718;83;26000;-85
2021/11/08 02:20:20;;;;;;;;;;;;;;;7.76;71.14;98165.38;1723233;83;24490;-84
2021/11/08 02:22:54;;;;;;;;;;;;;;;7.74;71.16;98167.27;1722914;83;20188;-85
2021/11/08 02:25:18;;;;;;;;;;;;;;;7.76;71.16;98174.50;1722311;83;24916;-85
2021/11/08 02:27:44;;;;;;;;;;;;;;;7.77;71.16;98180.08;1723002;83;22000;-85
2021/11/08 02:30:11;;;;;;;;;;;;;;;7.78;71.15;98175.25;1734568;81;26820;-85
2021/11/08 02:32:38;;;;;;;;;;;;;;;7.79;71.18;98176.09;1735926;81;24759;-84
2021/11/08 02:35:05;;;;;;;;;;;;;;;7.78;71.15;98175.25;1679099;83;20358;-84
2021/11/08 02:37:32;;;;;;;;;;;;;;;7.78;71.15;98172.64;1686202;83;24260;-84
2021/11/08 02:39:59;;;;;;;;;;;;;;;7.79;71.15;98174.32;1733945;82;22232;-84
2021/11/08 02:42:26;;;;;;;;;;;;;;;7.79;71.18;98173.48;1731514;81;25991;-84
2021/11/08 02:44:53;;;;;;;;;;;;;;;7.77;71.13;98173.56;1722658;82;24683;-84
2021/11/08 02:47:19;;;;;;;;;;;;;;;7.73;71.11;98174.70;1723327;83;20209;-84
2021/11/08 02:49:46;;;;;;;;;;;;;;;7.75;71.12;98178.03;1723313;81;24810;-84
2021/11/08 02:52:17;;;;;;;;;;;;;;;7.74;71.09;98179.45;1723325;83;22218;-84
2021/11/08 02:54:42;;;;;;;;;;;;;;;7.73;71.10;98182.98;1722951;82;25762;-84
2021/11/08 02:57:08;;;;;;;;;;;;;;;7.73;71.11;98183.81;1723290;83;24109;-84
2021/11/08 02:59:36;;;;;;;;;;;;;;;7.69;71.09;98183.61;1722868;82;20219;-84
2021/11/08 03:02:03;;;;;;;;;;;;;;;7.68;71.09;98186.34;1721131;83;25612;-84
2021/11/08 03:04:37;;;;;;;;;;;;;;;7.66;71.08;98184.28;1710687;83;21839;-84
2021/11/08 03:06:58;;;;;;;;;;;;;;;7.65;71.07;98189.95;1722424;82;26000;-84
2021/11/08 03:09:29;;;;;;;;;;;;;;;7.64;71.08;98183.06;1722802;83;24620;-84
2021/11/08 03:11:54;;;;;;;;;;;;;;;7.61;71.09;98196.29;1720694;83;20231;-84
2021/11/08 03:14:25;;;;;;;;;;;;;;;7.59;71.08;98191.62;1723567;82;24981;-84
2021/11/08 03:16:56;;;;;;;;;;;;;;;7.58;71.07;98189.14;1723240;83;21900;-84
2021/11/08 03:21:56;;;;;;;;;;;;;;;7.58;71.10;98193.05;1735025;82;24531;-84
2021/11/08 03:25:12;;;;;;;;;;;;;;;7.56;71.08;98187.93;1700954;82;20201;-84
2021/11/08 03:26:54;;;;;;;;;;;;;;;7.53;71.10;98188.94;1711094;81;24725;-83
2021/11/08 03:29:19;;;;;;;;;;;;;;;7.53;71.09;98196.75;1734506;81;22059;-83
2021/11/08 03:31:49;;;;;;;;;;;;;;;7.52;71.08;98192.96;1724969;82;25944;-83
2021/11/08 03:34:15;;;;;;;;;;;;;;;7.53;71.08;98189.40;1731637;81;25346;-84
2021/11/08 03:36:41;;;;;;;;;;;;;;;7.52;71.09;98192.50;1731947;81;20295;-84
2021/11/08 03:39:09;;;;;;;;;;;;;;;7.53;71.11;98196.75;1732979;81;24811;-83
2021/11/08 03:41:35;;;;;;;;;;;;;;;7.51;71.12;98194.73;1686205;83;22074;-83
2021/11/08 03:44:02;;;;;;;;;;;;;;;7.50;71.14;98193.51;1724614;83;25966;-83
2021/11/08 03:46:28;;;;;;;;;;;;;;;7.48;71.11;98194.05;1723230;82;24482;-83
2021/11/08 03:48:55;;;;;;;;;;;;;;;7.46;71.11;98190.73;1724724;83;20382;-83
2021/11/08 03:51:21;;;;;;;;;;;;;;;7.42;71.12;98193.97;1723056;81;24903;-83
2021/11/08 03:53:47;;;;;;;;;;;;;;;7.41;71.11;98201.89;1724852;83;21959;-83
2021/11/08 03:56:19;;;;;;;;;;;;;;;7.39;71.12;98201.13;1735371;81;26769;-82
2021/11/08 03:58:45;;;;;;;;;;;;;;;7.36;71.15;98200.88;1735127;81;25777;-83
2021/11/08 04:01:12;;;;;;;;;;;;;;;7.35;71.15;98214.81;1685090;83;20213;-83
2021/11/08 04:03:39;;;;;;;;;;;;;;;7.32;71.16;98207.17;1724278;83;24840;-83
2021/11/08 04:06:05;;;;;;;;;;;;;;;7.32;71.16;98205.87;1724308;82;21800;-83
2021/11/08 04:08:31;;;;;;;;;;;;;;;7.31;71.18;98214.59;1721390;82;25973;-83
2021/11/08 04:11:04;;;;;;;;;;;;;;;7.29;71.18;98215.64;1723640;82;23690;-83
2021/11/08 04:13:34;;;;;;;;;;;;;;;7.26;71.21;98224.91;1724401;82;20201;-83
2021/11/08 04:16:01;;;;;;;;;;;;;;;7.21;71.21;98212.64;1733121;82;24874;-83
2021/11/08 04:18:28;;;;;;;;;;;;;;;7.17;71.23;98211.16;1732303;82;22013;-84
2021/11/08 04:20:54;;;;;;;;;;;;;;;7.17;71.24;98211.16;1734445;81;26025;-84
2021/11/08 04:23:22;;;;;;;;;;;;;;;7.13;71.26;98206.61;1717384;82;24518;-83
2021/11/08 04:25:49;;;;;;;;;;;;;;;7.10;71.27;98206.31;1717600;83;20505;-84
2021/11/08 04:28:15;;;;;;;;;;;;;;;7.06;71.27;98202.23;1716590;83;24760;-83
2021/11/08 04:30:43;;;;;;;;;;;;;;;7.05;71.30;98208.81;1723252;82;22034;-85
2021/11/08 04:33:30;;;;;;;;;;;;;;;7.01;71.31;98204.27;1717217;83;26715;-84
2021/11/08 04:41:19;;;;;;;;;;;;;;;6.93;71.39;98210.83;1683979;83;25651;-84
2021/11/08 04:46:42;;;;;;;;;;;;;;;6.89;71.42;98212.78;1716464;82;26709;-85
2021/11/08 04:49:05;;;;;;;;;;;;;;;6.85;71.45;98216.50;1719587;82;23891;-85
2021/11/08 04:51:53;;;;;;;;;;;;;;;6.83;71.47;98213.60;1714060;83;20188;-85
2021/11/08 05:32:26;;;;;;;;;;;;;;;6.71;72.04;98265.85;1733469;81;20372;-84
2021/11/08 05:34:53;;;;;;;;;;;;;;;6.71;72.06;98264.55;1723082;83;25573;-84
2021/11/08 05:37:21;;;;;;;;;;;;;;;6.73;72.10;98273.12;1720373;83;21998;-84
2021/11/08 05:39:54;;;;;;;;;;;;;;;6.73;72.16;98268.76;1722075;83;25962;-84
2021/11/08 05:42:22;;;;;;;;;;;;;;;6.72;72.21;98270.98;1722706;83;24309;-84
2021/11/08 05:44:48;;;;;;;;;;;;;;;6.76;72.26;98274.27;1736146;81;20208;-84
2021/11/08 05:47:15;;;;;;;;;;;;;;;6.77;72.30;98274.61;1684379;83;24756;-84
2021/11/08 05:49:42;;;;;;;;;;;;;;;6.77;72.34;98282.41;1734786;82;22058;-84
2021/11/08 05:52:11;;;;;;;;;;;;;;;6.79;72.37;98282.33;1717875;82;26101;-84
2021/11/08 05:54:38;;;;;;;;;;;;;;;6.78;72.41;98285.39;1715586;83;24616;-84
2021/11/08 06:00:24;;;;;;;;;;;;;;;6.79;72.46;98299.23;1716861;82;24791;-84
2021/11/08 06:49:16;;;;;;;;;;;;;;;6.75;72.71;98361.00;1707391;84;24494;-84
2021/11/08 06:51:39;;;;;;;;;;;;;;;6.75;72.73;98364.06;1701490;84;20212;-84
2021/11/08 06:54:05;;;;;;;;;;;;;;;6.73;72.73;98364.98;1707469;83;24933;-84
2021/11/08 06:56:43;;;;;;;;;;;;;;;6.75;72.74;98370.56;1707566;83;21989;-84
2021/11/08 06:59:06;;;;;;;;;;;;;;;6.78;72.77;98375.58;1716471;83;25987;-84
2021/11/08 07:01:32;;;;;;;;;;;;;;;6.82;72.78;98382.31;1727511;81;24266;-85
2021/11/08 07:03:58;;;;;;;;;;;;;;;6.81;72.79;98380.17;1717620;83;20252;-84
2021/11/08 07:06:24;;;;;;;;;;;;;;;6.83;72.81;98387.41;1735502;82;24809;-85
2021/11/08 07:08:50;;;;;;;;;;;;;;;6.83;72.84;98387.86;1716447;83;22009;-85
2021/11/08 07:11:17;;;;;;;;;;;;;;;6.84;72.83;98393.45;1715162;83;20962;-85
2021/11/08 07:13:45;;;;;;;;;;;;;;;6.85;72.86;98388.17;1717571;83;24502;-84
2021/11/08 07:16:11;;;;;;;;;;;;;;;6.86;72.87;98392.45;1715786;82;20341;-84
2021/11/08 07:18:38;;;;;;;;;;;;;;;6.87;72.87;98399.80;1713179;83;24734;-84
2021/11/08 07:21:04;;;;;;;;;;;;;;;6.88;72.88;98406.20;1732936;82;22015;-84
2021/11/08 07:23:30;;;;;;;;;;;;;;;6.92;72.91;98413.39;1735527;81;25963;-84
2021/11/08 07:26:00;;;;;;;;;;;;;;;6.96;72.93;98413.59;1733933;81;20297;-84
2021/11/08 07:28:26;;;;;;;;;;;;;;;6.98;72.93;98417.77;1692131;82;20321;-84
2021/11/08 07:30:54;;;;;;;;;;;;;;;7.02;72.95;98422.36;1723408;83;25482;-85
2021/11/08 07:33:20;;;;;;;;;;;;;;;7.05;72.98;98424.77;1731928;82;21979;-85
2021/11/08 07:35:47;;;;;;;;;;;;;;;7.07;72.98;98420.34;1715154;83;25944;-85
2021/11/08 07:38:13;;;;;;;;;;;;;;;7.12;73.01;98424.81;1716313;82;24426;-85
2021/11/08 07:40:39;;;;;;;;;;;;;;;7.18;73.02;98434.05;1715880;83;20286;-85
2021/11/08 07:43:05;;;;;;;;;;;;;;;7.22;73.04;98436.38;1716910;83;25497;-85
2021/11/08 07:45:31;;;;;;;;;;;;;;;7.28;73.07;98441.70;1715353;82;21963;-85
2021/11/08 07:47:58;;;;;;;;;;;;;;;7.34;73.08;98439.60;1735192;82;26075;-85
2021/11/08 07:50:24;;;;;;;;;;;;;;;7.42;73.11;98444.36;1714122;82;25250;-85
2021/11/08 07:52:50;;;;;;;;;;;;;;;7.49;73.14;98447.00;1721000;82;20225;-84
2021/11/08 07:55:16;;;;;;;;;;;;;;;7.56;73.16;98447.03;1734896;81;25517;-85
2021/11/08 07:57:42;;;;;;;;;;;;;;;7.65;73.17;98439.98;1716891;82;22052;-83
2021/11/08 08:00:09;;;;;;;;;;;;;;;7.71;73.18;98442.23;1718270;82;26763;-84
2021/11/08 08:02:36;;;;;;;;;;;;;;;7.81;73.19;98449.88;1722884;82;24686;-84
2021/11/08 08:05:02;;;;;;;;;;;;;;;7.87;73.17;98446.08;1723464;81;20127;-84
2021/11/08 08:07:28;;;;;;;;;;;;;;;7.93;73.14;98449.17;1722425;83;24762;-84
2021/11/08 08:09:55;;;;;;;;;;;;;;;7.96;73.08;98458.59;1736026;82;20310;-84
2021/11/08 08:12:22;;;;;;;;;;;;;;;7.98;73.06;98464.06;1736014;81;26037;-84
2021/11/08 08:14:48;;;;;;;;;;;;;;;7.99;72.99;98470.95;1736547;81;24384;-84
2021/11/08 08:17:14;;;;;;;;;;;;;;;7.99;72.93;98467.52;1705365;82;20281;-83
2021/11/08 08:19:40;;;;;;;;;;;;;;;8.05;72.86;98467.62;1735805;81;24682;-84
2021/11/08 08:22:08;;;;;;;;;;;;;;;8.10;72.86;98474.23;1735737;82;22006;-84
2021/11/08 08:24:34;;;;;;;;;;;;;;;8.15;72.82;98475.27;1722788;83;26057;-84
2021/11/08 08:27:04;;;;;;;;;;;;;;;8.21;72.81;98481.42;1720571;82;24482;-84
2021/11/08 08:29:31;;;;;;;;;;;;;;;8.24;72.79;98486.44;1723056;83;20246;-84
2021/11/08 08:32:03;;;;;;;;;;;;;;;8.25;72.70;98493.33;1733546;81;24767;-84
2021/11/08 08:34:30;;;;;;;;;;;;;;;8.24;72.61;98491.65;1736101;81;22210;-84
2021/11/08 08:36:58;;;;;;;;;;;;;;;8.27;72.51;98500.15;1735985;81;25997;-84
2021/11/08 08:39:24;;;;;;;;;;;;;;;8.27;72.41;98498.00;1735402;81;24497;-84
2021/11/08 08:41:51;;;;;;;;;;;;;;;8.27;72.31;98497.54;1681165;83;20229;-84
2021/11/08 08:44:17;;;;;;;;;;;;;;;8.31;72.22;98506.87;1733346;82;24945;-84
2021/11/08 08:46:44;;;;;;;;;;;;;;;8.32;72.13;98508.56;1686118;83;22529;-84
2021/11/08 08:49:13;;;;;;;;;;;;;;;8.36;72.09;98508.75;1676122;83;26224;-84
2021/11/08 08:51:43;;;;;;;;;;;;;;;8.42;72.03;98501.48;1693865;83;24518;-85
2021/11/08 08:54:10;;;;;;;;;;;;;;;8.44;72.01;98505.69;1696465;83;20212;-85
2021/11/08 08:56:36;;;;;;;;;;;;;;;8.44;71.95;98513.98;1714160;82;24595;-84
2021/11/08 08:59:03;;;;;;;;;;;;;;;8.43;71.86;98509.23;1713910;82;22052;-84
2021/11/08 09:01:30;;;;;;;;;;;;;;;8.45;71.78;98509.14;1707997;82;26085;-85
2021/11/08 09:03:56;;;;;;;;;;;;;;;8.55;71.75;98511.56;1696915;84;24529;-85
2021/11/08 09:06:23;;;;;;;;;;;;;;;8.71;71.75;98507.09;1697455;84;20260;-85
2021/11/08 09:08:50;;;;;;;;;;;;;;;8.86;71.77;98504.84;1694172;83;24786;-84
2021/11/08 09:11:17;;;;;;;;;;;;;;;8.99;71.75;98506.23;1698443;83;22214;-84
2021/11/08 09:13:43;;;;;;;;;;;;;;;9.10;71.74;98507.71;1698006;84;26207;-84
2021/11/08 09:16:13;;;;;;;;;;;;;;;9.16;71.69;98515.97;1696302;84;24583;-84
2021/11/08 09:18:40;;;;;;;;;;;;;;;9.18;71.55;98524.56;1703769;84;20269;-85
2021/11/08 09:21:08;;;;;;;;;;;;;;;9.23;71.46;98528.18;1697994;84;24931;-85
2021/11/08 09:23:34;;;;;;;;;;;;;;;9.28;71.35;98529.19;1697742;83;22762;-84
2021/11/08 09:26:00;;;;;;;;;;;;;;;9.34;71.27;98532.72;1698243;84;25983;-84
2021/11/08 09:28:26;;;;;;;;;;;;;;;9.31;71.09;98531.16;1698078;84;24405;-84
2021/11/08 09:30:52;;;;;;;;;;;;;;;9.32;70.91;98529.39;1697984;83;20336;-84
2021/11/08 09:33:19;;;;;;;;;;;;;;;9.35;70.78;98527.41;1695816;83;24989;-84
2021/11/08 09:35:49;;;;;;;;;;;;;;;9.40;70.68;98534.48;1698216;84;21996;-84
2021/11/08 09:38:13;;;;;;;;;;;;;;;9.44;70.55;98533.81;1696460;84;26083;-84
2021/11/08 09:40:39;;;;;;;;;;;;;;;9.46;70.43;98535.88;1703018;84;24488;-84
2021/11/08 09:43:10;;;;;;;;;;;;;;;9.44;70.30;98535.12;1698907;83;20577;-84
2021/11/08 09:45:37;;;;;;;;;;;;;;;9.36;70.09;98535.63;1698219;83;24992;-84
2021/11/08 09:48:03;;;;;;;;;;;;;;;9.28;69.81;98533.11;1698279;84;22100;-84
2021/11/08 09:50:31;;;;;;;;;;;;;;;9.23;69.60;98531.63;1704192;83;25969;-84
2021/11/08 09:53:01;;;;;;;;;;;;;;;9.24;69.41;98535.09;1651346;85;21626;-84
2021/11/08 09:55:28;;;;;;;;;;;;;;;9.26;69.23;98535.84;1698144;83;20305;-84
2021/11/08 09:57:55;;;;;;;;;;;;;;;9.29;69.08;98538.70;1697736;84;24702;-84
2021/11/08 10:00:29;;;;;;;;;;;;;;;9.33;68.95;98531.08;1668062;84;22004;-84
2021/11/08 10:02:57;;;;;;;;;;;;;;;9.37;68.83;98535.16;1693460;82;26074;-84
2021/11/08 10:05:25;;;;;;;;;;;;;;;9.44;68.71;98533.81;1696076;83;25486;-84
2021/11/08 10:07:52;;;;;;;;;;;;;;;9.52;68.57;98531.10;1698386;84;20225;-84
2021/11/08 10:10:18;;;;;;;;;;;;;;;9.64;68.47;98532.94;1693534;84;24615;-84
2021/11/08 10:12:46;;;;;;;;;;;;;;;9.76;68.39;98538.31;1698242;84;21975;-84
2021/11/08 10:15:13;;;;;;;;;;;;;;;9.81;68.21;98536.23;1696219;84;26034;-84
2021/11/08 10:17:39;;;;;;;;;;;;;;;9.88;68.08;98538.79;1697289;83;24453;-84
2021/11/08 10:20:08;;;;;;;;;;;;;;;9.88;67.89;98530.48;1696879;84;20257;-84
2021/11/08 10:22:35;;;;;;;;;;;;;;;9.88;67.70;98529.64;1697326;84;24741;-84
2021/11/08 10:25:03;;;;;;;;;;;;;;;9.89;67.52;98532.16;1697775;83;22195;-85
2021/11/08 10:27:43;;;;;;;;;;;;;;;9.88;67.32;98530.48;1698022;84;27015;-84
2021/11/08 10:30:11;;;;;;;;;;;;;;;9.92;67.15;98529.83;1698270;84;24465;-85
2021/11/08 10:32:37;;;;;;;;;;;;;;;9.98;67.03;98523.70;1696679;84;20558;-84
2021/11/08 10:35:05;;;;;;;;;;;;;;;10.10;66.94;98519.45;1698247;84;24826;-84
2021/11/08 10:37:32;;;;;;;;;;;;;;;10.23;66.94;98516.42;1669602;84;22315;-84
2021/11/08 10:39:59;;;;;;;;;;;;;;;10.30;66.82;98521.63;1697465;84;26010;-84
2021/11/08 10:42:26;;;;;;;;;;;;;;;10.33;66.63;98516.64;1703695;84;24684;-84
2021/11/08 10:44:53;;;;;;;;;;;;;;;10.32;66.40;98518.41;1693179;84;20456;-84
2021/11/08 10:47:22;;;;;;;;;;;;;;;10.33;66.19;98514.02;1698345;83;24619;-84
2021/11/08 10:49:53;;;;;;;;;;;;;;;10.33;66.04;98512.25;1698284;84;22011;-84
2021/11/08 10:52:19;;;;;;;;;;;;;;;10.26;65.81;98514.90;1697978;84;26183;-84
2021/11/08 10:54:47;;;;;;;;;;;;;;;10.23;65.59;98513.81;1698178;84;24445;-84
2021/11/08 10:57:15;;;;;;;;;;;;;;;10.25;65.43;98508.02;1698049;84;20205;-84
2021/11/08 10:59:43;;;;;;;;;;;;;;;10.26;65.27;98503.59;1695956;84;25883;-84
2021/11/08 11:02:12;;;;;;;;;;;;;;;10.32;65.15;98504.03;1701913;82;22025;-84
2021/11/08 11:04:43;;;;;;;;;;;;;;;10.32;65.02;98506.64;1714063;82;26026;-84
2021/11/08 11:07:07;;;;;;;;;;;;;;;10.27;64.81;98503.50;1713498;82;24682;-84
2021/11/08 11:09:34;;;;;;;;;;;;;;;10.30;64.70;98503.78;1714469;83;20221;-84
2021/11/08 11:12:14;;;;;;;;;;;;;;;10.30;64.58;98506.40;1712605;82;24939;-85
2021/11/08 11:14:42;;;;;;;;;;;;;;;10.22;64.43;98501.67;1714065;82;22646;-86
2021/11/08 11:17:10;;;;;;;;;;;;;;;10.19;64.26;98508.89;1713524;82;25992;-86
2021/11/08 11:19:37;;;;;;;;;;;;;;;10.18;64.15;98517.20;1714034;82;24478;-85
2021/11/08 11:22:06;;;;;;;;;;;;;;;10.20;64.05;98507.46;1676304;84;20199;-84
2021/11/08 11:24:41;;;;;;;;;;;;;;;10.21;63.97;98503.07;1678770;84;24943;-85
2021/11/08 11:27:02;;;;;;;;;;;;;;;10.22;63.92;98510.83;1662767;85;22223;-85
2021/11/08 11:29:29;;;;;;;;;;;;;;;10.26;63.86;98513.59;1663419;86;26088;-85
2021/11/08 11:31:55;;;;;;;;;;;;;;;10.30;63.80;98509.02;1666571;84;24490;-85
2021/11/08 11:34:22;;;;;;;;;;;;;;;10.34;63.75;98510.47;1661084;86;20244;-85
2021/11/08 11:36:50;;;;;;;;;;;;;;;10.39;63.71;98507.07;1677104;85;25622;-84
2021/11/08 11:39:17;;;;;;;;;;;;;;;10.45;63.68;98503.58;1663054;86;22237;-84
2021/11/08 11:41:45;;;;;;;;;;;;;;;10.51;63.66;98500.17;1659186;86;26068;-84
2021/11/08 11:44:12;;;;;;;;;;;;;;;10.55;63.56;98495.08;1663200;86;24541;-84
2021/11/08 11:46:40;;;;;;;;;;;;;;;10.53;63.43;98487.83;1663454;86;20498;-84
2021/11/08 11:49:07;;;;;;;;;;;;;;;10.52;63.27;98492.69;1662388;86;24976;-84
2021/11/08 11:51:44;;;;;;;;;;;;;;;10.54;63.20;98489.48;1673464;84;22095;-84
2021/11/08 11:54:11;;;;;;;;;;;;;;;10.54;63.08;98492.09;1639356;86;26175;-84
2021/11/08 11:56:39;;;;;;;;;;;;;;;10.56;62.98;98494.98;1662692;86;25073;-84
2021/11/08 12:01:53;;;;;;;;;;;;;;;10.48;62.70;98486.34;1703216;83;24877;-84
2021/11/08 12:04:20;;;;;;;;;;;;;;;10.48;62.59;98478.49;1703378;83;22080;-84
2021/11/08 12:06:48;;;;;;;;;;;;;;;10.48;62.51;98477.19;1701168;83;26271;-84
2021/11/08 12:09:18;;;;;;;;;;;;;;;10.53;62.45;98481.29;1701546;83;24432;-84
2021/11/08 12:11:46;;;;;;;;;;;;;;;10.55;62.43;98482.84;1702696;83;20171;-84
2021/11/08 12:14:14;;;;;;;;;;;;;;;10.54;62.35;98481.63;1703629;83;24986;-84
2021/11/08 12:16:54;;;;;;;;;;;;;;;10.48;62.26;98481.58;1688199;83;21934;-84
2021/11/08 12:19:21;;;;;;;;;;;;;;;10.43;62.17;98477.13;1688439;83;26933;-85
2021/11/08 12:21:48;;;;;;;;;;;;;;;10.39;62.06;98473.06;1715415;82;24404;-84
2021/11/08 12:24:18;;;;;;;;;;;;;;;10.38;62.04;98473.53;1722264;82;20224;-84
2021/11/08 12:26:45;;;;;;;;;;;;;;;10.36;61.97;98473.28;1700648;83;24895;-85
2021/11/08 12:29:13;;;;;;;;;;;;;;;10.34;61.94;98487.77;1702541;83;22599;-84
2021/11/08 12:31:40;;;;;;;;;;;;;;;10.33;61.92;98478.23;1702047;83;25983;-84
2021/11/08 12:34:13;;;;;;;;;;;;;;;10.30;61.87;98485.00;1701605;83;20203;-84
2021/11/08 12:36:42;;;;;;;;;;;;;;;10.27;61.83;98483.88;1701134;83;20251;-84
2021/11/08 12:39:12;;;;;;;;;;;;;;;10.25;61.81;98483.64;1698472;83;20797;-84
2021/11/08 12:41:46;;;;;;;;;;;;;;;10.24;61.81;98481.48;1694063;83;22042;-84
2021/11/08 12:44:08;;;;;;;;;;;;;;;10.22;61.79;98475.52;1692570;83;26661;-84
2021/11/08 12:46:39;;;;;;;;;;;;;;;10.21;61.78;98480.84;1695083;83;24383;-84
2021/11/08 12:49:09;;;;;;;;;;;;;;;10.23;61.84;98477.20;1695319;83;20236;-85
2021/11/08 12:51:38;;;;;;;;;;;;;;;10.24;61.83;98473.64;1695247;83;24821;-84
2021/11/08 12:54:09;;;;;;;;;;;;;;;10.25;61.84;98484.95;1695159;83;22744;-85
2021/11/08 12:56:46;;;;;;;;;;;;;;;10.22;61.83;98480.75;1694628;83;26043;-85
2021/11/08 12:59:13;;;;;;;;;;;;;;;10.21;61.80;98477.76;1673380;84;24694;-85
2021/11/08 13:01:41;;;;;;;;;;;;;;;10.17;61.78;98477.61;1692396;83;20396;-85
2021/11/08 13:04:09;;;;;;;;;;;;;;;10.13;61.77;98482.66;1694945;83;25580;-84
2021/11/08 13:06:36;;;;;;;;;;;;;;;10.12;61.77;98482.75;1693631;83;22010;-84
2021/11/08 13:09:10;;;;;;;;;;;;;;;10.09;61.77;98483.80;1696920;84;26618;-85
2021/11/08 13:11:37;;;;;;;;;;;;;;;10.08;61.77;98472.98;1696637;83;24401;-85
2021/11/08 13:14:05;;;;;;;;;;;;;;;10.04;61.78;98480.16;1698603;84;20472;-85
2021/11/08 13:16:33;;;;;;;;;;;;;;;10.03;61.79;98479.83;1699039;83;24764;-85
2021/11/08 13:19:03;;;;;;;;;;;;;;;10.01;61.81;98481.69;1696299;83;21980;-84
2021/11/08 13:21:30;;;;;;;;;;;;;;;10.04;61.87;98487.17;1694602;83;26010;-84
2021/11/08 13:23:57;;;;;;;;;;;;;;;10.01;61.86;98488.23;1699750;83;24774;-85
2021/11/08 13:26:23;;;;;;;;;;;;;;;9.98;61.89;98486.30;1697401;84;20332;-85
2021/11/08 13:28:49;;;;;;;;;;;;;;;9.99;61.89;98492.71;1696917;83;25541;-84
2021/11/08 13:31:16;;;;;;;;;;;;;;;10.02;61.92;98491.68;1695358;82;22229;-85
2021/11/08 13:33:44;;;;;;;;;;;;;;;10.01;61.96;98492.62;1696047;83;26040;-85
2021/11/08 13:36:10;;;;;;;;;;;;;;;10.00;62.00;98490.47;1696453;83;25380;-85
2021/11/08 13:38:38;;;;;;;;;;;;;;;9.97;62.00;98494.61;1696167;83;20244;-85
2021/11/08 13:41:06;;;;;;;;;;;;;;;9.94;62.00;98485.64;1697192;83;24801;-85
2021/11/08 13:43:39;;;;;;;;;;;;;;;9.79;62.00;98478.82;1692125;83;22750;-85
2021/11/08 13:46:13;;;;;;;;;;;;;;;9.83;61.99;98497.74;1697691;83;26060;-85
2021/11/08 13:48:43;;;;;;;;;;;;;;;9.75;62.01;98486.97;1683979;84;25118;-85
2021/11/08 13:51:10;;;;;;;;;;;;;;;9.79;62.04;98495.81;1703301;83;20301;-85
2021/11/08 13:53:37;;;;;;;;;;;;;;;9.74;62.07;98495.28;1665251;84;24853;-84
2021/11/08 13:56:05;;;;;;;;;;;;;;;9.73;62.06;98503.20;1704200;83;21956;-85
2021/11/08 13:58:32;;;;;;;;;;;;;;;9.71;62.10;98497.27;1702664;83;25384;-85
2021/11/08 14:01:00;;;;;;;;;;;;;;;9.67;62.11;98500.52;1702894;83;24473;-85
2021/11/08 14:03:26;;;;;;;;;;;;;;;9.64;62.15;98505.97;1702428;83;20231;-85
2021/11/08 14:05:53;;;;;;;;;;;;;;;9.64;62.16;98511.19;1702364;83;24761;-85
2021/11/08 14:08:19;;;;;;;;;;;;;;;9.65;62.21;98512.88;1701975;83;21962;-85
2021/11/08 14:10:53;;;;;;;;;;;;;;;9.61;62.25;98513.98;1701769;83;26671;-85
2021/11/08 14:13:21;;;;;;;;;;;;;;;9.61;62.28;98516.13;1701983;84;24397;-84
2021/11/08 14:15:49;;;;;;;;;;;;;;;9.61;62.31;98514.83;1702332;83;20333;-84
2021/11/08 14:18:19;;;;;;;;;;;;;;;9.62;62.36;98517.81;1701136;83;25045;-84
2021/11/08 14:20:45;;;;;;;;;;;;;;;9.60;62.40;98518.37;1702422;83;22072;-84
2021/11/08 14:23:11;;;;;;;;;;;;;;;9.60;62.43;98519.67;1702324;83;26023;-84
2021/11/08 14:25:37;;;;;;;;;;;;;;;9.60;62.48;98522.28;1702259;83;24395;-84
2021/11/08 14:28:03;;;;;;;;;;;;;;;9.57;62.50;98529.03;1702399;83;20234;-84
2021/11/08 14:30:31;;;;;;;;;;;;;;;9.56;62.51;98526.51;1701975;83;24772;-84
2021/11/08 14:32:58;;;;;;;;;;;;;;;9.54;62.57;98524.02;1702486;83;22455;-84
2021/11/08 14:35:29;;;;;;;;;;;;;;;9.53;62.59;98526.25;1701627;84;26098;-84
2021/11/08 14:40:37;;;;;;;;;;;;;;;9.52;62.68;98531.56;1700267;84;20345;-84